Terminal Aerodrome Forecast
Issued by NWS Louisville, KY

Home | Current Version | Previous Version | Text Only | Print | Product List | Glossary On
Versions: 1 2 3 4 5 6 7 8 9 10 11 12
000
FTUS43 KLMK 230500
TAFBWG
TAF
KBWG 230534Z 2306/2406 17008KT P6SM SCT040 SCT150 WS020/21040KT
     FM231000 15011KT P6SM BKN030
     FM231600 15015G22KT 4SM SHRA BKN015
     FM240200 19015G25KT P6SM VCSH OVC020=

USA.gov is the U.S. government's official web portal to all federal, state and local government web resources and services.